Time;durP1;ratioP1;P1;durP2;ratioP2;P2;SDS_P1;SDS_P2;PMS_P1;PMS_P2;Temp;Humidity;BMP_temperature;BMP_pressure;BME280_temperature;BME280_humidity;BME280_pressure;Samples;Min_cycle;Max_cycle;Signal;HPM_P1;HPM_P2
2022/10/06 00:01:01;;;;;;;2.53;1.60;;;;;;;;;;5066363;28;20027;-62
2022/10/06 00:03:29;;;;;;;1.38;0.90;;;;;;;;;;5068059;28;20028;-62
2022/10/06 00:06:00;;;;;;;0.93;0.63;;;;;;;;;;5071614;28;20349;-64
2022/10/06 00:08:27;;;;;;;1.30;0.82;;;;;;;;;;5071276;28;20033;-62
2022/10/06 00:10:56;;;;;;;3.85;1.52;;;;;;;;;;5073270;28;20031;-63
2022/10/06 00:13:24;;;;;;;7.03;2.25;;;;;;;;;;5075100;28;20426;-62
2022/10/06 00:15:51;;;;;;;1.88;1.42;;;;;;;;;;5072920;28;20094;-63
2022/10/06 00:18:17;;;;;;;1.95;1.17;;;;;;;;;;5069318;28;20025;-63
2022/10/06 00:20:44;;;;;;;2.00;1.40;;;;;;;;;;5069871;28;20032;-62
2022/10/06 00:23:11;;;;;;;1.92;1.10;;;;;;;;;;5069910;28;20033;-63
2022/10/06 00:25:38;;;;;;;1.17;0.98;;;;;;;;;;5071173;28;20064;-64
2022/10/06 00:28:05;;;;;;;1.23;0.95;;;;;;;;;;5074251;28;20078;-63
2022/10/06 00:30:31;;;;;;;2.88;2.10;;;;;;;;;;5074820;28;20032;-64
2022/10/06 00:32:59;;;;;;;4.10;1.95;;;;;;;;;;5074468;28;20127;-65
2022/10/06 00:35:27;;;;;;;3.50;1.90;;;;;;;;;;5073333;28;20035;-62
2022/10/06 00:37:54;;;;;;;3.08;1.60;;;;;;;;;;5073300;28;20029;-63
2022/10/06 00:40:21;;;;;;;4.55;1.67;;;;;;;;;;5069647;28;20641;-63
2022/10/06 00:42:52;;;;;;;2.15;1.30;;;;;;;;;;5069337;28;20028;-63
2022/10/06 00:45:22;;;;;;;4.53;1.98;;;;;;;;;;5069063;28;20020;-65
2022/10/06 00:47:49;;;;;;;2.83;1.17;;;;;;;;;;5070161;28;20032;-63
2022/10/06 00:50:16;;;;;;;3.77;1.90;;;;;;;;;;5073904;28;20536;-63
2022/10/06 00:52:43;;;;;;;3.50;1.77;;;;;;;;;;5074267;28;20024;-66
2022/10/06 00:55:10;;;;;;;2.17;1.47;;;;;;;;;;5074297;28;20029;-63
2022/10/06 00:57:38;;;;;;;2.73;1.70;;;;;;;;;;5074130;28;20051;-65
2022/10/06 01:00:08;;;;;;;6.07;1.57;;;;;;;;;;5073371;28;20020;-65
2022/10/06 01:03:01;;;;;;;1.67;1.37;;;;;;;;;;5069474;28;20352;-63
2022/10/06 01:05:30;;;;;;;1.27;0.70;;;;;;;;;;5065112;28;20450;-64
2022/10/06 01:07:57;;;;;;;2.93;1.47;;;;;;;;;;5069175;28;20137;-61
2022/10/06 01:10:23;;;;;;;3.90;1.57;;;;;;;;;;5070175;28;20372;-60
2022/10/06 01:12:51;;;;;;;3.50;1.77;;;;;;;;;;5073757;28;20399;-61
2022/10/06 01:15:18;;;;;;;2.27;1.50;;;;;;;;;;5073811;28;20082;-62
2022/10/06 01:17:44;;;;;;;1.23;0.83;;;;;;;;;;5073425;28;20475;-61
2022/10/06 01:20:13;;;;;;;2.00;1.17;;;;;;;;;;5073428;28;20069;-61
2022/10/06 01:22:47;;;;;;;1.80;1.03;;;;;;;;;;5072116;28;20020;-61
2022/10/06 01:25:15;;;;;;;2.33;1.30;;;;;;;;;;5068267;28;20036;-61
2022/10/06 01:27:44;;;;;;;1.97;1.17;;;;;;;;;;5067963;28;20063;-62
2022/10/06 01:30:13;;;;;;;2.03;1.33;;;;;;;;;;5055869;28;20043;-61
2022/10/06 01:32:40;;;;;;;1.90;1.20;;;;;;;;;;5069641;28;20024;-62
2022/10/06 01:35:07;;;;;;;20.87;1.63;;;;;;;;;;5072823;28;20119;-63
2022/10/06 01:37:34;;;;;;;1.40;0.97;;;;;;;;;;5072638;28;20028;-61
2022/10/06 01:40:01;;;;;;;1.93;1.00;;;;;;;;;;5072643;28;20032;-62
2022/10/06 01:42:30;;;;;;;2.07;1.60;;;;;;;;;;5072873;28;20021;-60
2022/10/06 01:44:58;;;;;;;3.23;1.20;;;;;;;;;;5071416;28;20491;-62
2022/10/06 01:47:24;;;;;;;2.13;1.13;;;;;;;;;;5068213;28;20074;-62
2022/10/06 01:49:51;;;;;;;2.17;1.17;;;;;;;;;;5067747;28;20020;-63
2022/10/06 01:52:18;;;;;;;3.27;1.77;;;;;;;;;;5068182;28;20032;-61
2022/10/06 01:54:45;;;;;;;1.67;1.23;;;;;;;;;;5068240;28;20033;-63
2022/10/06 01:57:11;;;;;;;4.10;1.60;;;;;;;;;;5072844;28;20029;-65
2022/10/06 01:59:38;;;;;;;2.90;1.67;;;;;;;;;;5072745;28;20055;-63
2022/10/06 02:02:05;;;;;;;5.67;1.33;;;;;;;;;;5072669;28;20376;-63
2022/10/06 02:04:31;;;;;;;2.70;1.40;;;;;;;;;;5072872;28;20024;-61
2022/10/06 02:06:58;;;;;;;1.37;1.00;;;;;;;;;;5072267;28;20024;-61
2022/10/06 02:09:25;;;;;;;2.33;1.67;;;;;;;;;;5068133;28;20029;-60
2022/10/06 02:11:52;;;;;;;2.43;1.23;;;;;;;;;;5067819;28;20422;-61
2022/10/06 02:14:18;;;;;;;4.70;2.47;;;;;;;;;;5067950;28;20106;-61
2022/10/06 02:16:45;;;;;;;2.97;1.83;;;;;;;;;;5067430;28;20386;-62
2022/10/06 02:19:12;;;;;;;1.60;1.13;;;;;;;;;;5072002;28;20028;-61
2022/10/06 02:21:39;;;;;;;1.33;1.00;;;;;;;;;;5071857;28;20024;-61
2022/10/06 02:24:06;;;;;;;2.67;1.53;;;;;;;;;;5072419;28;20024;-61
2022/10/06 02:26:33;;;;;;;7.37;2.30;;;;;;;;;;5071353;28;20109;-61
2022/10/06 02:28:59;;;;;;;1.37;1.13;;;;;;;;;;5071416;28;20036;-61
2022/10/06 02:31:26;;;;;;;3.40;1.77;;;;;;;;;;5066977;28;20045;-61
2022/10/06 02:33:53;;;;;;;3.10;1.83;;;;;;;;;;5065694;28;20050;-61
2022/10/06 02:36:21;;;;;;;3.73;2.37;;;;;;;;;;5066697;28;20036;-61
2022/10/06 02:38:48;;;;;;;3.13;2.17;;;;;;;;;;5066325;28;20607;-63
2022/10/06 02:41:14;;;;;;;3.73;1.50;;;;;;;;;;5071368;28;20154;-62
2022/10/06 02:43:41;;;;;;;6.47;1.87;;;;;;;;;;5072522;28;20478;-62
2022/10/06 02:46:13;;;;;;;1.33;0.93;;;;;;;;;;5072191;28;20024;-62
2022/10/06 02:48:42;;;;;;;8.73;1.70;;;;;;;;;;5072398;28;20032;-61
2022/10/06 02:51:14;;;;;;;2.53;1.73;;;;;;;;;;5071744;28;20024;-61
2022/10/06 02:53:44;;;;;;;2.40;1.67;;;;;;;;;;5067217;28;20029;-63
2022/10/06 02:56:14;;;;;;;2.27;1.60;;;;;;;;;;5067213;28;20047;-62
2022/10/06 02:58:42;;;;;;;2.60;1.47;;;;;;;;;;5067272;28;20035;-61
2022/10/06 03:01:10;;;;;;;4.07;1.50;;;;;;;;;;5066832;28;20020;-63
2022/10/06 03:03:37;;;;;;;2.57;1.70;;;;;;;;;;5051639;28;20021;-61
2022/10/06 03:06:25;;;;;;;2.53;1.67;;;;;;;;;;5062714;28;20420;-61
2022/10/06 03:08:53;;;;;;;3.70;1.93;;;;;;;;;;5071649;28;20020;-60
2022/10/06 03:11:21;;;;;;;2.93;1.63;;;;;;;;;;5054352;28;20426;-63
2022/10/06 03:13:49;;;;;;;3.73;2.40;;;;;;;;;;5071531;28;20017;-61
2022/10/06 03:16:18;;;;;;;2.47;1.53;;;;;;;;;;5065741;28;20052;-61
2022/10/06 03:18:45;;;;;;;2.43;1.83;;;;;;;;;;5047252;28;20104;-62
2022/10/06 03:21:14;;;;;;;1.70;1.37;;;;;;;;;;5058749;28;20036;-61
2022/10/06 03:23:42;;;;;;;2.30;1.40;;;;;;;;;;5067151;28;20078;-60
2022/10/06 03:26:08;;;;;;;3.07;1.97;;;;;;;;;;5069919;28;20349;-61
2022/10/06 03:28:35;;;;;;;4.03;2.33;;;;;;;;;;5070187;28;20028;-64
2022/10/06 03:31:02;;;;;;;2.40;1.77;;;;;;;;;;5072061;28;20039;-63
2022/10/06 03:33:29;;;;;;;4.67;2.63;;;;;;;;;;5071705;28;20027;-63
2022/10/06 03:35:59;;;;;;;2.87;1.27;;;;;;;;;;5071715;28;20039;-62
2022/10/06 03:38:26;;;;;;;2.73;2.00;;;;;;;;;;5066885;28;20410;-61
2022/10/06 03:40:53;;;;;;;2.80;1.40;;;;;;;;;;5066742;28;20538;-63
2022/10/06 03:43:19;;;;;;;1.97;1.43;;;;;;;;;;5066457;28;20032;-60
2022/10/06 03:45:55;;;;;;;3.80;2.17;;;;;;;;;;5068903;28;20024;-63
2022/10/06 03:48:22;;;;;;;3.63;1.83;;;;;;;;;;5074819;28;20107;-61
2022/10/06 03:50:55;;;;;;;2.17;1.50;;;;;;;;;;5074861;28;20028;-62
2022/10/06 03:53:24;;;;;;;2.10;1.33;;;;;;;;;;5075112;28;20028;-62
2022/10/06 03:56:00;;;;;;;1.67;1.40;;;;;;;;;;5074893;28;20041;-62
2022/10/06 03:58:28;;;;;;;4.37;1.43;;;;;;;;;;5075448;28;20112;-62
2022/10/06 04:01:17;;;;;;;5.13;1.90;;;;;;;;;;5069455;28;20133;-62
2022/10/06 04:03:44;;;;;;;2.30;1.57;;;;;;;;;;5042193;28;20033;-62
2022/10/06 04:06:12;;;;;;;1.73;1.33;;;;;;;;;;5068146;28;20021;-62
2022/10/06 04:08:40;;;;;;;1.27;1.00;;;;;;;;;;5058933;28;20024;-61
2022/10/06 04:11:21;;;;;;;1.47;0.97;;;;;;;;;;5074577;28;20044;-63
2022/10/06 04:13:48;;;;;;;1.57;1.10;;;;;;;;;;5070415;28;20020;-62
2022/10/06 04:16:16;;;;;;;2.90;1.23;;;;;;;;;;5074862;28;20032;-61
2022/10/06 04:18:44;;;;;;;4.23;1.73;;;;;;;;;;5075182;28;20017;-62
2022/10/06 04:21:11;;;;;;;4.23;1.93;;;;;;;;;;5074462;28;20025;-62
2022/10/06 04:23:38;;;;;;;1.73;1.20;;;;;;;;;;5068290;28;20028;-62
2022/10/06 04:26:08;;;;;;;4.20;1.23;;;;;;;;;;5068851;28;20391;-63
2022/10/06 04:28:36;;;;;;;0.80;0.80;;;;;;;;;;5068826;28;20648;-63
2022/10/06 04:31:04;;;;;;;1.87;1.17;;;;;;;;;;5068919;28;20017;-62
2022/10/06 04:33:34;;;;;;;1.30;0.80;;;;;;;;;;5073961;28;20031;-63
2022/10/06 04:36:03;;;;;;;2.97;1.10;;;;;;;;;;5069568;28;20032;-62
2022/10/06 04:38:32;;;;;;;1.67;1.33;;;;;;;;;;5073388;28;20486;-63
2022/10/06 04:41:11;;;;;;;6.47;2.33;;;;;;;;;;5073697;28;20039;-62
2022/10/06 04:43:41;;;;;;;2.30;1.33;;;;;;;;;;5072671;28;20030;-63
2022/10/06 04:46:07;;;;;;;2.27;1.20;;;;;;;;;;5067716;28;20379;-61
2022/10/06 04:48:34;;;;;;;2.37;1.50;;;;;;;;;;5080642;28;20028;-61
2022/10/06 04:51:02;;;;;;;3.17;1.77;;;;;;;;;;5069155;28;20035;-61
2022/10/06 04:53:29;;;;;;;2.00;1.57;;;;;;;;;;5068964;28;20021;-61
2022/10/06 04:56:03;;;;;;;4.23;1.50;;;;;;;;;;5074131;28;20028;-61
2022/10/06 04:58:34;;;;;;;2.28;1.33;;;;;;;;;;5073958;28;20039;-61
2022/10/06 05:01:01;;;;;;;2.63;1.73;;;;;;;;;;5074244;28;20052;-61
2022/10/06 05:03:29;;;;;;;3.03;1.43;;;;;;;;;;5074494;28;20023;-61
2022/10/06 05:06:06;;;;;;;1.93;1.10;;;;;;;;;;5073405;28;20029;-61
2022/10/06 05:08:33;;;;;;;3.63;1.27;;;;;;;;;;5069205;28;20043;-60
2022/10/06 05:11:03;;;;;;;2.67;1.10;;;;;;;;;;5069358;28;20028;-61
2022/10/06 05:13:30;;;;;;;2.47;1.57;;;;;;;;;;5069239;28;20078;-60
2022/10/06 05:16:00;;;;;;;1.40;1.10;;;;;;;;;;5069177;28;20097;-60
2022/10/06 05:18:29;;;;;;;2.83;1.47;;;;;;;;;;5073866;28;20028;-61
2022/10/06 05:21:00;;;;;;;3.77;1.87;;;;;;;;;;5073530;28;20036;-60
2022/10/06 05:23:28;;;;;;;2.57;1.50;;;;;;;;;;5073981;28;20031;-59
2022/10/06 05:25:56;;;;;;;3.07;1.40;;;;;;;;;;5072545;28;20016;-60
2022/10/06 05:28:31;;;;;;;2.00;1.43;;;;;;;;;;5072777;28;20460;-59
2022/10/06 05:30:58;;;;;;;;;;;;;;;;;;5048841;28;20417;-61
2022/10/06 05:33:27;;;;;;;2.50;1.23;;;;;;;;;;5057837;28;19904;-60
2022/10/06 05:35:59;;;;;;;1.97;1.17;;;;;;;;;;5068302;28;20040;-61
2022/10/06 05:38:44;;;;;;;2.63;1.03;;;;;;;;;;5068786;28;20044;-60
2022/10/06 05:41:10;;;;;;;;;;;;;;;;;;5073679;28;20020;-59
2022/10/06 05:43:38;;;;;;;3.00;1.53;;;;;;;;;;5073406;28;20364;-59
2022/10/06 05:46:06;;;;;;;0.97;0.87;;;;;;;;;;5073008;28;20021;-60
2022/10/06 05:48:33;;;;;;;1.87;1.47;;;;;;;;;;5072661;28;20422;-59
2022/10/06 05:51:00;;;;;;;1.50;1.00;;;;;;;;;;5072210;28;20024;-59
2022/10/06 05:53:28;;;;;;;1.73;1.40;;;;;;;;;;5068158;28;20082;-60
2022/10/06 05:56:05;;;;;;;1.23;1.07;;;;;;;;;;5068200;28;20074;-60
2022/10/06 05:58:32;;;;;;;2.93;1.70;;;;;;;;;;5067860;28;20032;-59
2022/10/06 06:01:07;;;;;;;3.93;1.27;;;;;;;;;;5068546;28;20032;-59
2022/10/06 06:03:34;;;;;;;1.43;1.23;;;;;;;;;;5073415;28;20531;-59
2022/10/06 06:06:01;;;;;;;2.70;1.27;;;;;;;;;;5073085;28;20421;-59
2022/10/06 06:08:28;;;;;;;1.53;1.07;;;;;;;;;;5072276;28;20025;-59
2022/10/06 06:10:54;;;;;;;1.10;0.93;;;;;;;;;;5072953;28;20016;-59
2022/10/06 06:13:21;;;;;;;2.00;1.13;;;;;;;;;;5071666;28;20025;-60
2022/10/06 06:16:00;;;;;;;1.90;1.00;;;;;;;;;;5067566;28;20036;-60
2022/10/06 06:18:31;;;;;;;3.23;2.13;;;;;;;;;;5066971;28;20028;-60
2022/10/06 06:20:58;;;;;;;11.53;2.30;;;;;;;;;;5067358;28;20055;-59
2022/10/06 06:23:25;;;;;;;1.00;0.77;;;;;;;;;;5068405;28;20384;-60
2022/10/06 06:26:02;;;;;;;1.43;1.20;;;;;;;;;;5072604;28;20508;-59
2022/10/06 06:28:30;;;;;;;3.37;1.47;;;;;;;;;;5072699;28;20020;-59
2022/10/06 06:31:05;;;;;;;2.53;1.90;;;;;;;;;;5072203;28;20383;-59
2022/10/06 06:33:32;;;;;;;1.30;1.10;;;;;;;;;;5072456;28;20028;-60
2022/10/06 06:36:02;;;;;;;2.00;1.53;;;;;;;;;;5070144;28;20107;-60
2022/10/06 06:38:30;;;;;;;1.20;1.00;;;;;;;;;;5066741;28;20063;-59
2022/10/06 06:40:57;;;;;;;1.70;1.27;;;;;;;;;;5067217;28;20054;-60
2022/10/06 06:43:23;;;;;;;1.17;0.90;;;;;;;;;;5066992;28;20025;-59
2022/10/06 06:45:50;;;;;;;1.33;1.10;;;;;;;;;;5068381;28;20484;-59
2022/10/06 06:48:17;;;;;;;1.07;0.90;;;;;;;;;;5072379;28;20070;-59
2022/10/06 06:50:44;;;;;;;0.97;0.67;;;;;;;;;;5071876;28;20425;-59
2022/10/06 06:53:13;;;;;;;0.87;0.70;;;;;;;;;;5072046;28;20085;-59
2022/10/06 06:55:49;;;;;;;1.07;0.97;;;;;;;;;;5072114;28;20052;-59
2022/10/06 06:58:15;;;;;;;0.90;0.80;;;;;;;;;;5069910;28;20033;-59
2022/10/06 07:00:42;;;;;;;1.07;0.80;;;;;;;;;;5067001;28;20052;-59
2022/10/06 07:03:12;;;;;;;1.07;0.87;;;;;;;;;;5067034;28;20040;-59
2022/10/06 07:05:39;;;;;;;7.00;0.70;;;;;;;;;;5067051;28;20028;-60
2022/10/06 07:08:09;;;;;;;0.90;0.70;;;;;;;;;;5068009;28;20422;-59
2022/10/06 07:10:36;;;;;;;0.60;0.57;;;;;;;;;;5071782;28;20020;-60
2022/10/06 07:13:05;;;;;;;0.30;0.30;;;;;;;;;;5072062;28;20545;-59
2022/10/06 07:26:34;;;;;;;2.47;1.80;;;;;;;;;;5070854;28;20043;-60
2022/10/06 07:29:01;;;;;;;2.23;1.00;;;;;;;;;;5070971;28;20070;-59
2022/10/06 07:31:32;;;;;;;1.60;1.30;;;;;;;;;;5073846;28;20103;-59
2022/10/06 07:34:03;;;;;;;1.83;1.33;;;;;;;;;;5076025;28;20039;-59
2022/10/06 07:36:30;;;;;;;1.73;1.33;;;;;;;;;;5076027;28;20028;-59
2022/10/06 07:38:57;;;;;;;0.87;0.80;;;;;;;;;;5076224;28;20091;-59
2022/10/06 07:41:24;;;;;;;2.73;1.43;;;;;;;;;;5075933;28;20059;-60
2022/10/06 07:43:52;;;;;;;1.63;1.40;;;;;;;;;;5072136;28;20028;-59
2022/10/06 07:46:19;;;;;;;1.77;1.30;;;;;;;;;;5070104;28;20093;-60
2022/10/06 07:48:49;;;;;;;3.63;2.07;;;;;;;;;;5070255;28;20388;-60
2022/10/06 07:51:17;;;;;;;1.53;1.10;;;;;;;;;;5070563;28;20020;-59
2022/10/06 07:53:45;;;;;;;1.13;1.00;;;;;;;;;;5073499;28;20028;-60
2022/10/06 07:56:14;;;;;;;2.17;1.43;;;;;;;;;;5075613;28;20467;-60
2022/10/06 07:58:43;;;;;;;1.77;1.37;;;;;;;;;;5075482;28;20108;-59
2022/10/06 08:01:11;;;;;;;0.87;0.83;;;;;;;;;;5075046;28;20377;-60
2022/10/06 08:03:39;;;;;;;1.47;1.17;;;;;;;;;;5075669;28;20024;-59
2022/10/06 08:06:06;;;;;;;2.07;1.30;;;;;;;;;;5072223;28;20035;-60
2022/10/06 08:08:36;;;;;;;2.07;1.67;;;;;;;;;;5070318;28;20031;-60
2022/10/06 08:11:04;;;;;;;1.73;1.40;;;;;;;;;;5070128;28;20024;-59
2022/10/06 08:13:31;;;;;;;1.47;1.13;;;;;;;;;;5070087;28;20021;-60
2022/10/06 08:16:03;;;;;;;0.53;0.50;;;;;;;;;;5072472;28;20029;-59
2022/10/06 08:18:30;;;;;;;2.40;1.27;;;;;;;;;;5074935;28;20029;-60
2022/10/06 08:20:57;;;;;;;1.87;1.23;;;;;;;;;;5075364;28;20024;-60
2022/10/06 08:23:24;;;;;;;4.27;1.40;;;;;;;;;;5074690;28;20020;-60
2022/10/06 08:25:53;;;;;;;2.20;1.30;;;;;;;;;;5075073;28;20108;-59
2022/10/06 08:28:21;;;;;;;0.80;0.80;;;;;;;;;;5072046;28;20105;-59
2022/10/06 08:30:50;;;;;;;0.50;0.50;;;;;;;;;;5068540;28;20033;-59
2022/10/06 08:33:16;;;;;;;1.13;0.90;;;;;;;;;;5069772;28;20020;-60
2022/10/06 08:35:43;;;;;;;2.27;1.43;;;;;;;;;;5069688;28;20430;-59
2022/10/06 08:38:11;;;;;;;1.23;1.00;;;;;;;;;;5071276;28;20029;-60
2022/10/06 08:40:40;;;;;;;1.20;0.93;;;;;;;;;;5074561;28;20037;-59
2022/10/06 08:43:13;;;;;;;1.20;1.00;;;;;;;;;;5074850;28;20031;-59
2022/10/06 08:45:43;;;;;;;1.63;1.10;;;;;;;;;;5074361;28;20085;-59
2022/10/06 08:48:14;;;;;;;2.47;1.30;;;;;;;;;;5074636;28;20067;-60
2022/10/06 08:50:50;;;;;;;1.63;1.33;;;;;;;;;;5071593;28;20051;-60
2022/10/06 08:53:31;;;;;;;1.50;1.13;;;;;;;;;;5069188;28;20375;-59
2022/10/06 08:56:03;;;;;;;0.77;0.77;;;;;;;;;;5068974;28;20542;-59
2022/10/06 08:58:36;;;;;;;2.03;1.67;;;;;;;;;;5069367;28;20039;-59
2022/10/06 09:01:02;;;;;;;1.37;1.10;;;;;;;;;;5072638;28;20032;-59
2022/10/06 09:03:30;;;;;;;2.80;1.37;;;;;;;;;;5074605;28;20024;-59
2022/10/06 09:06:07;;;;;;;1.30;0.90;;;;;;;;;;5074234;28;20056;-60
2022/10/06 09:08:39;;;;;;;2.07;1.43;;;;;;;;;;5073885;28;20467;-59
2022/10/06 09:11:23;;;;;;;3.63;1.40;;;;;;;;;;5074381;28;20029;-59
2022/10/06 09:14:10;;;;;;;1.55;1.17;;;;;;;;;;5069532;28;20032;-59
2022/10/06 09:16:39;;;;;;;1.93;1.03;;;;;;;;;;5055485;28;20048;-60
2022/10/06 09:19:20;;;;;;;0.73;0.73;;;;;;;;;;5069063;28;20051;-59
2022/10/06 09:21:49;;;;;;;1.20;1.00;;;;;;;;;;5068981;28;20047;-59
2022/10/06 09:24:17;;;;;;;1.07;0.83;;;;;;;;;;5074082;28;20021;-59
2022/10/06 09:26:45;;;;;;;1.20;0.90;;;;;;;;;;5073441;28;20028;-60
2022/10/06 09:29:13;;;;;;;1.80;0.93;;;;;;;;;;5073994;28;20464;-60
2022/10/06 09:31:41;;;;;;;4.97;1.63;;;;;;;;;;5073868;28;20029;-60
2022/10/06 09:34:18;;;;;;;0.80;0.80;;;;;;;;;;5073765;28;20021;-59
2022/10/06 09:37:03;;;;;;;1.97;1.20;;;;;;;;;;5068240;28;20051;-59
2022/10/06 09:39:32;;;;;;;;;;;;;;;;;;5069225;28;20123;-59
2022/10/06 09:42:03;;;;;;;3.47;1.93;;;;;;;;;;5068387;28;19904;-59
2022/10/06 09:44:33;;;;;;;2.10;1.37;;;;;;;;;;5068818;28;20016;-59
2022/10/06 09:47:00;;;;;;;2.40;1.40;;;;;;;;;;5073025;28;20032;-59
2022/10/06 09:49:30;;;;;;;0.93;0.77;;;;;;;;;;5073562;28;20027;-59
2022/10/06 09:52:15;;;;;;;1.43;0.80;;;;;;;;;;5073703;28;20032;-59
2022/10/06 09:54:43;;;;;;;0.93;0.82;;;;;;;;;;5073418;28;20475;-59
2022/10/06 09:57:18;;;;;;;2.37;1.30;;;;;;;;;;5071458;28;20029;-59
2022/10/06 09:59:46;;;;;;;2.73;1.63;;;;;;;;;;5067976;28;20034;-59
2022/10/06 10:02:35;;;;;;;2.27;1.63;;;;;;;;;;5068024;28;20024;-59
2022/10/06 10:05:05;;;;;;;1.60;1.30;;;;;;;;;;5068057;28;20060;-59
2022/10/06 10:07:33;;;;;;;2.43;1.40;;;;;;;;;;5069627;28;20025;-60
2022/10/06 10:10:19;;;;;;;2.33;1.37;;;;;;;;;;5073018;28;20039;-59
2022/10/06 10:12:58;;;;;;;1.23;1.02;;;;;;;;;;5072995;28;20025;-60
2022/10/06 10:15:29;;;;;;;1.37;1.10;;;;;;;;;;5072963;28;20032;-59
2022/10/06 10:17:55;;;;;;;1.87;1.43;;;;;;;;;;5072531;28;20104;-59
2022/10/06 10:20:26;;;;;;;1.63;1.30;;;;;;;;;;5069052;28;20035;-59
2022/10/06 10:22:54;;;;;;;2.53;2.10;;;;;;;;;;5067719;28;20025;-60
2022/10/06 10:25:39;;;;;;;1.80;1.10;;;;;;;;;;5067637;28;20020;-59
2022/10/06 10:28:16;;;;;;;2.00;1.55;;;;;;;;;;5067286;28;20717;-59
2022/10/06 10:30:48;;;;;;;2.97;2.23;;;;;;;;;;5071209;28;20040;-59
2022/10/06 10:33:24;;;;;;;1.80;1.27;;;;;;;;;;5072581;28;20086;-59
2022/10/06 10:35:52;;;;;;;3.20;1.80;;;;;;;;;;5072433;28;20116;-59
2022/10/06 10:38:20;;;;;;;2.67;1.43;;;;;;;;;;5072547;28;20035;-59
2022/10/06 10:40:53;;;;;;;1.83;1.53;;;;;;;;;;5072426;28;20095;-59
2022/10/06 10:43:31;;;;;;;8.40;2.20;;;;;;;;;;5067483;28;20032;-59
2022/10/06 10:46:01;;;;;;;2.03;1.50;;;;;;;;;;5067402;28;20598;-59
2022/10/06 10:48:29;;;;;;;5.80;2.90;;;;;;;;;;5067075;28;20025;-59
2022/10/06 10:51:07;;;;;;;1.63;1.40;;;;;;;;;;5067237;28;20052;-59
2022/10/06 10:53:43;;;;;;;1.20;1.10;;;;;;;;;;5071803;28;20062;-59
2022/10/06 10:56:11;;;;;;;3.77;2.00;;;;;;;;;;5072240;28;20111;-59
2022/10/06 10:58:41;;;;;;;1.67;1.33;;;;;;;;;;5072260;28;20028;-59
2022/10/06 11:01:14;;;;;;;1.63;0.77;;;;;;;;;;5072283;28;20025;-59
2022/10/06 11:03:41;;;;;;;2.50;1.80;;;;;;;;;;5071358;28;20108;-59
2022/10/06 11:06:10;;;;;;;3.07;2.17;;;;;;;;;;5067127;28;20035;-59
2022/10/06 11:08:42;;;;;;;3.00;2.00;;;;;;;;;;5066591;28;20032;-59
2022/10/06 11:11:15;;;;;;;3.17;1.87;;;;;;;;;;5067062;28;20388;-59
2022/10/06 11:13:44;;;;;;;2.10;1.20;;;;;;;;;;5067079;28;20473;-60
2022/10/06 11:16:20;;;;;;;1.83;1.10;;;;;;;;;;5071861;28;20035;-59
2022/10/06 11:18:54;;;;;;;2.63;0.87;;;;;;;;;;5072063;28;20041;-59
2022/10/06 11:21:30;;;;;;;1.73;1.40;;;;;;;;;;5072084;28;20025;-59
2022/10/06 11:24:13;;;;;;;3.40;2.00;;;;;;;;;;5072019;28;20021;-59
2022/10/06 11:27:02;;;;;;;2.97;1.80;;;;;;;;;;5070078;28;20017;-59
2022/10/06 11:29:35;;;;;;;3.43;2.07;;;;;;;;;;5038823;28;20041;-59
2022/10/06 11:32:11;;;;;;;5.40;1.97;;;;;;;;;;5046750;28;20119;-59
2022/10/06 11:34:38;;;;;;;2.90;2.00;;;;;;;;;;5046530;28;20033;-59
2022/10/06 11:37:23;;;;;;;1.57;1.13;;;;;;;;;;5049467;28;20415;-59
2022/10/06 11:40:05;;;;;;;2.22;1.63;;;;;;;;;;5051988;28;20025;-59
2022/10/06 11:42:41;;;;;;;2.27;1.77;;;;;;;;;;5051831;28;20021;-59
2022/10/06 11:45:15;;;;;;;12.90;1.47;;;;;;;;;;5051995;28;20515;-59
2022/10/06 11:47:41;;;;;;;1.20;1.08;;;;;;;;;;5056730;28;20028;-59
2022/10/06 11:50:35;;;;;;;2.43;1.73;;;;;;;;;;5067480;28;20028;-59
2022/10/06 11:53:02;;;;;;;0.73;0.70;;;;;;;;;;5063693;28;20037;-59
2022/10/06 11:55:29;;;;;;;2.77;1.67;;;;;;;;;;5066513;28;20503;-59
2022/10/06 11:58:05;;;;;;;2.27;1.70;;;;;;;;;;5066423;28;20025;-59
2022/10/06 12:00:32;;;;;;;5.13;1.30;;;;;;;;;;5070975;28;20494;-59
2022/10/06 12:03:18;;;;;;;1.83;1.50;;;;;;;;;;5070935;28;20388;-59
2022/10/06 12:05:45;;;;;;;1.77;1.40;;;;;;;;;;5072146;28;20027;-59
2022/10/06 12:08:15;;;;;;;1.77;1.50;;;;;;;;;;5075352;28;20104;-59
2022/10/06 12:10:50;;;;;;;1.73;1.53;;;;;;;;;;5074764;28;20090;-59
2022/10/06 12:13:20;;;;;;;2.50;1.87;;;;;;;;;;5069598;28;20025;-59
2022/10/06 12:15:46;;;;;;;3.03;1.87;;;;;;;;;;5069877;28;20043;-59
2022/10/06 12:18:18;;;;;;;1.40;1.30;;;;;;;;;;5069915;28;20182;-60
2022/10/06 12:20:52;;;;;;;1.43;1.03;;;;;;;;;;5070070;28;20036;-59
2022/10/06 12:23:48;;;;;;;2.70;1.73;;;;;;;;;;5074720;28;20100;-58
2022/10/06 12:26:15;;;;;;;5.83;1.70;;;;;;;;;;5058485;28;20035;-59
2022/10/06 12:28:54;;;;;;;4.40;2.63;;;;;;;;;;5074765;28;20138;-59
2022/10/06 12:31:21;;;;;;;3.23;2.30;;;;;;;;;;5069714;28;20103;-59
2022/10/06 12:33:49;;;;;;;9.67;3.70;;;;;;;;;;5072842;28;20020;-60
2022/10/06 12:36:20;;;;;;;2.07;1.77;;;;;;;;;;5069192;28;20036;-59
2022/10/06 12:39:04;;;;;;;2.47;1.83;;;;;;;;;;5069864;28;20028;-59
2022/10/06 12:41:50;;;;;;;1.90;1.37;;;;;;;;;;5069367;28;20036;-59
2022/10/06 12:44:42;;;;;;;24.67;1.70;;;;;;;;;;5072058;28;20128;-60
2022/10/06 12:47:15;;;;;;;9.07;3.13;;;;;;;;;;5071244;28;20101;-59
2022/10/06 12:49:41;;;;;;;4.23;1.90;;;;;;;;;;5074356;28;20024;-59
2022/10/06 12:52:30;;;;;;;2.50;2.07;;;;;;;;;;5074175;28;20024;-59
2022/10/06 12:55:15;;;;;;;2.30;1.50;;;;;;;;;;5074383;28;20039;-59
2022/10/06 12:57:46;;;;;;;1.20;1.05;;;;;;;;;;5069291;28;20545;-60
2022/10/06 13:00:22;;;;;;;2.20;1.93;;;;;;;;;;5068587;28;20042;-59
2022/10/06 13:02:49;;;;;;;3.57;2.27;;;;;;;;;;5069304;28;20047;-59
2022/10/06 13:05:16;;;;;;;11.17;1.97;;;;;;;;;;5069393;28;20410;-59
2022/10/06 13:08:01;;;;;;;2.27;1.17;;;;;;;;;;5074244;28;20405;-59
2022/10/06 13:10:29;;;;;;;6.13;2.73;;;;;;;;;;5073572;28;20024;-59
2022/10/06 13:12:57;;;;;;;2.07;1.50;;;;;;;;;;5074288;28;20071;-59
2022/10/06 13:15:40;;;;;;;3.50;2.57;;;;;;;;;;5074437;28;20044;-59
2022/10/06 13:18:10;;;;;;;4.63;2.80;;;;;;;;;;5072056;28;20043;-59
2022/10/06 13:20:47;;;;;;;10.37;2.93;;;;;;;;;;5068628;28;20480;-59
2022/10/06 13:23:49;;;;;;;5.03;2.93;;;;;;;;;;5068783;28;20761;-59
2022/10/06 13:26:24;;;;;;;16.70;3.30;;;;;;;;;;4986843;28;20447;-59
2022/10/06 13:28:52;;;;;;;11.03;2.07;;;;;;;;;;5060676;28;20087;-60
2022/10/06 13:31:19;;;;;;;6.70;2.33;;;;;;;;;;5073665;28;20027;-60
2022/10/06 13:33:50;;;;;;;7.63;2.90;;;;;;;;;;5073877;28;20024;-60
2022/10/06 13:36:16;;;;;;;2.80;1.73;;;;;;;;;;5073847;28;20024;-59
2022/10/06 13:38:44;;;;;;;2.97;1.80;;;;;;;;;;5073882;28;20414;-59
2022/10/06 13:41:11;;;;;;;6.83;2.47;;;;;;;;;;5069820;28;20086;-59
2022/10/06 13:43:39;;;;;;;7.10;1.77;;;;;;;;;;5068369;28;20097;-59
2022/10/06 13:46:10;;;;;;;1.80;1.63;;;;;;;;;;5068221;28;20024;-59
2022/10/06 13:48:44;;;;;;;5.23;2.40;;;;;;;;;;5068279;28;20097;-61
2022/10/06 13:51:15;;;;;;;9.43;3.87;;;;;;;;;;5070672;28;20063;-60
2022/10/06 13:53:45;;;;;;;1.90;1.63;;;;;;;;;;5073331;28;20388;-60
2022/10/06 13:56:25;;;;;;;3.30;1.57;;;;;;;;;;5073183;28;20083;-60
2022/10/06 13:58:52;;;;;;;4.70;2.50;;;;;;;;;;5073380;28;20025;-60
2022/10/06 14:01:28;;;;;;;4.73;2.00;;;;;;;;;;5073104;28;20418;-59
2022/10/06 14:04:14;;;;;;;4.97;2.07;;;;;;;;;;5069295;28;20056;-60
2022/10/06 14:07:01;;;;;;;8.90;2.30;;;;;;;;;;5067958;28;20468;-59
2022/10/06 14:09:31;;;;;;;3.43;2.00;;;;;;;;;;5067889;28;20400;-60
2022/10/06 14:12:03;;;;;;;3.57;1.83;;;;;;;;;;5067248;28;20021;-60
2022/10/06 14:14:30;;;;;;;6.00;3.30;;;;;;;;;;5072582;28;20472;-59
2022/10/06 14:16:57;;;;;;;4.60;2.73;;;;;;;;;;5072516;28;20059;-60
2022/10/06 14:19:29;;;;;;;14.00;2.63;;;;;;;;;;5072870;28;20039;-60
2022/10/06 14:21:56;;;;;;;5.27;2.73;;;;;;;;;;5072556;28;20111;-60
2022/10/06 14:24:28;;;;;;;6.67;2.07;;;;;;;;;;5072941;28;20029;-60
2022/10/06 14:27:02;;;;;;;4.37;2.03;;;;;;;;;;5067524;28;20020;-60
2022/10/06 14:29:30;;;;;;;2.55;1.85;;;;;;;;;;5066972;28;20112;-60
2022/10/06 14:32:06;;;;;;;1.73;1.30;;;;;;;;;;5067041;28;20037;-60
2022/10/06 14:34:33;;;;;;;4.27;1.97;;;;;;;;;;5067258;28;20024;-60
2022/10/06 14:37:00;;;;;;;6.47;2.30;;;;;;;;;;5072713;28;20435;-62
2022/10/06 14:39:27;;;;;;;4.77;1.90;;;;;;;;;;5071350;28;20062;-61
2022/10/06 14:41:54;;;;;;;1.43;1.20;;;;;;;;;;5082312;28;20828;-60
2022/10/06 14:44:20;;;;;;;3.20;1.10;;;;;;;;;;5072487;28;20029;-62
2022/10/06 14:46:48;;;;;;;4.03;1.73;;;;;;;;;;5072114;28;20025;-62
2022/10/06 14:49:14;;;;;;;1.53;1.10;;;;;;;;;;5066841;28;20025;-62
2022/10/06 14:51:42;;;;;;;1.43;1.00;;;;;;;;;;5067061;28;20421;-62
2022/10/06 14:54:09;;;;;;;2.50;1.43;;;;;;;;;;5066857;28;20024;-62
2022/10/06 14:56:37;;;;;;;4.00;1.93;;;;;;;;;;5066594;28;20036;-62
2022/10/06 14:59:05;;;;;;;2.93;1.60;;;;;;;;;;5071946;28;20047;-62
2022/10/06 15:01:33;;;;;;;3.30;2.00;;;;;;;;;;5072262;28;20020;-62
2022/10/06 15:04:01;;;;;;;3.60;1.93;;;;;;;;;;5072295;28;20020;-62
2022/10/06 15:09:12;;;;;;;2.20;1.25;;;;;;;;;;5071720;28;20499;-62
2022/10/06 15:11:39;;;;;;;2.87;1.60;;;;;;;;;;5066930;28;20079;-62
2022/10/06 15:14:09;;;;;;;1.00;0.80;;;;;;;;;;5067049;28;20020;-62
2022/10/06 15:16:39;;;;;;;1.77;1.20;;;;;;;;;;5066978;28;20107;-62